Yukon, Oklahoma
Current Conditions -  °F | °C
As of 9:35 PM on Saturday 22 Nov 2014 (Local Time) from KRCE Reporting Station
Overcast Overcast  
Wind Chill: 55°   Ceiling: 600
Heat Index: 55°   Visibility: NA
Dew Point: 55°   Wind: 17mph
Humidity: 100%   Direction: 160°SSE
Pressure: 29.72"   Gusts: 21mph
Location:  35.51°N, 97.74°W
Report Text: KRCE 230335Z AUTO 16015G18KT OVC006 13/13 A2972 RMK AO2
Loading
Personal Weather Stations






























Interactive Weather Map New forecast layout! Learn more

10-Day Weather Forecast

Advertisements
Track Severe Weather on mobile